Time;durP1;ratioP1;P1;durP2;ratioP2;P2;SDS_P1;SDS_P2;PMS_P1;PMS_P2;Temp;Humidity;BMP_temperature;BMP_pressure;BME280_temperature;BME280_humidity;BME280_pressure;Samples;Min_cycle;Max_cycle;Signal;HPM_P1;HPM_P2
2021/10/17 00:01:39;;;;;;;26.13;16.75;;;;;;;13.80;85.78;99964.59;5101426;28;20057;-65
2021/10/17 00:04:05;;;;;;;17.35;9.30;;;;;;;13.92;85.93;99967.66;5101957;28;20040;-65
2021/10/17 00:06:30;;;;;;;9.07;4.40;;;;;;;13.83;85.77;99966.91;5101904;28;20020;-65
2021/10/17 00:08:57;;;;;;;5.28;3.15;;;;;;;13.83;85.58;99972.22;5102419;28;20028;-65
2021/10/17 00:11:23;;;;;;;4.13;2.17;;;;;;;13.71;86.62;99974.47;5102140;28;20034;-68
2021/10/17 00:13:51;;;;;;;6.35;2.20;;;;;;;13.81;85.87;99968.06;5101701;28;20056;-65
2021/10/17 00:16:17;;;;;;;5.30;2.20;;;;;;;13.75;85.74;99961.63;5101884;28;20028;-65
2021/10/17 00:18:42;;;;;;;3.00;2.13;;;;;;;13.69;85.99;99973.81;5101742;28;20039;-68
2021/10/17 00:21:08;;;;;;;4.28;2.45;;;;;;;13.64;86.57;99970.84;5101678;28;20050;-68
2021/10/17 00:23:33;;;;;;;4.72;1.88;;;;;;;13.72;86.44;99956.66;5100938;28;20031;-66
2021/10/17 00:25:59;;;;;;;5.40;2.72;;;;;;;13.88;85.46;99964.53;5102037;28;20095;-65
2021/10/17 00:28:24;;;;;;;3.03;1.98;;;;;;;13.85;85.78;99970.22;5101658;28;20032;-66
2021/10/17 00:30:49;;;;;;;3.38;2.00;;;;;;;13.81;86.41;99963.59;5101942;28;20110;-65
2021/10/17 00:33:15;;;;;;;2.75;1.92;;;;;;;13.73;86.84;99972.47;5101838;28;20273;-65
2021/10/17 00:35:40;;;;;;;3.17;2.22;;;;;;;13.77;86.65;99967.59;5101774;28;20099;-65
2021/10/17 00:38:06;;;;;;;6.07;2.05;;;;;;;13.74;86.58;99959.97;5101762;28;20063;-66
2021/10/17 00:40:31;;;;;;;4.43;2.20;;;;;;;13.77;86.39;99961.44;5101761;28;20032;-66
2021/10/17 00:42:57;;;;;;;3.13;2.10;;;;;;;13.88;85.35;99959.19;5101573;28;20333;-68
2021/10/17 00:45:27;;;;;;;5.93;2.20;;;;;;;13.71;85.60;99965.66;5101759;28;20031;-65
2021/10/17 00:47:54;;;;;;;3.97;2.20;;;;;;;13.71;85.81;99966.47;5101500;28;20039;-68
2021/10/17 00:50:19;;;;;;;2.80;2.10;;;;;;;13.82;85.34;99967.91;5101294;28;20296;-66
2021/10/17 00:52:45;;;;;;;4.70;2.22;;;;;;;13.85;84.12;99964.88;5101607;28;20036;-68
2021/10/17 00:55:12;;;;;;;2.60;2.05;;;;;;;13.70;84.77;99966.66;5102630;28;20031;-65
2021/10/17 00:57:39;;;;;;;3.65;2.30;;;;;;;13.73;84.65;99972.47;5102408;28;20183;-67
2021/10/17 01:00:06;;;;;;;3.95;1.92;;;;;;;13.96;83.45;99974.28;5102511;28;20031;-65
2021/10/17 01:02:31;;;;;;;3.83;2.13;;;;;;;13.78;84.39;99979.06;5102031;28;20079;-67
2021/10/17 01:04:59;;;;;;;3.97;2.00;;;;;;;13.85;83.61;99972.88;5102414;28;20028;-65
2021/10/17 01:07:24;;;;;;;3.33;2.00;;;;;;;13.69;84.65;99981.78;5102248;28;20145;-66
2021/10/17 01:09:49;;;;;;;3.90;2.20;;;;;;;13.71;84.30;99973.63;5102311;28;20032;-68
2021/10/17 01:12:15;;;;;;;3.72;2.40;;;;;;;13.62;84.71;99967.53;5102296;28;20048;-68
2021/10/17 01:14:40;;;;;;;2.70;2.00;;;;;;;13.57;85.04;99971.72;5102165;28;20363;-67
2021/10/17 01:17:06;;;;;;;2.72;2.28;;;;;;;13.67;85.01;99978.47;5102357;28;20058;-65
2021/10/17 01:19:31;;;;;;;4.78;2.28;;;;;;;13.53;85.49;99970.44;5102007;28;20222;-68
2021/10/17 01:21:57;;;;;;;3.03;2.10;;;;;;;13.52;85.52;99969.56;5101733;28;20024;-65
2021/10/17 01:24:22;;;;;;;4.90;2.60;;;;;;;13.51;85.31;99970.56;5101990;28;20036;-68
2021/10/17 01:26:48;;;;;;;3.90;2.50;;;;;;;13.70;84.50;99982.63;5102531;28;20028;-68
2021/10/17 01:29:15;;;;;;;2.67;2.10;;;;;;;13.57;84.81;99964.56;5102073;28;20034;-65
2021/10/17 01:31:46;;;;;;;2.75;2.10;;;;;;;13.57;85.07;99979.72;5101049;28;20349;-65
2021/10/17 01:34:12;;;;;;;4.00;2.63;;;;;;;13.70;84.26;99974.63;5101936;28;20044;-68
2021/10/17 01:36:38;;;;;;;5.13;2.90;;;;;;;13.61;84.96;99971.19;5105032;28;20039;-65
2021/10/17 01:39:06;;;;;;;5.07;2.80;;;;;;;13.88;83.49;99977.00;5106176;28;20032;-65
2021/10/17 01:41:32;;;;;;;3.47;2.25;;;;;;;13.65;84.21;99975.16;5106026;28;20036;-65
2021/10/17 01:44:12;;;;;;;5.45;2.70;;;;;;;13.75;84.04;99964.28;5105998;28;20039;-68
2021/10/17 01:46:38;;;;;;;3.22;2.17;;;;;;;13.56;83.76;99951.44;5106027;28;20027;-67
2021/10/17 01:49:05;;;;;;;4.53;2.33;;;;;;;13.71;83.40;99965.66;5105420;28;20070;-68
2021/10/17 01:51:31;;;;;;;3.10;2.17;;;;;;;13.68;83.52;99969.50;5105421;28;20331;-68
2021/10/17 01:53:56;;;;;;;4.78;2.90;;;;;;;13.65;83.58;99975.16;5226428;23;20046;-72
2021/10/17 01:56:22;;;;;;;4.32;2.53;;;;;;;13.74;83.33;99976.78;5025502;28;20322;-72
2021/10/17 01:58:47;;;;;;;3.53;2.25;;;;;;;13.65;83.64;99971.69;5025515;28;20033;-72
2021/10/17 02:01:12;;;;;;;2.58;2.20;;;;;;;13.63;83.62;99971.03;5025390;28;20017;-71
2021/10/17 02:03:38;;;;;;;2.72;1.90;;;;;;;13.77;82.72;99961.44;5025197;28;20104;-71
2021/10/17 02:06:03;;;;;;;4.85;2.40;;;;;;;13.67;83.47;99975.00;5025401;28;20033;-71
2021/10/17 02:08:29;;;;;;;4.82;2.05;;;;;;;13.62;83.82;99972.03;5025305;28;20041;-72
2021/10/17 02:10:56;;;;;;;2.17;1.80;;;;;;;13.57;83.88;99977.06;5025432;28;20025;-72
2021/10/17 02:13:21;;;;;;;5.30;1.85;;;;;;;13.57;83.22;99966.41;5025004;28;20056;-72
2021/10/17 02:15:47;;;;;;;2.70;1.80;;;;;;;13.67;83.35;99977.66;5025205;28;20230;-72
2021/10/17 02:18:13;;;;;;;4.00;1.90;;;;;;;13.64;83.85;99978.00;5025081;28;20044;-72
2021/10/17 02:20:38;;;;;;;3.28;1.75;;;;;;;13.67;83.30;99972.34;5025192;28;20113;-72
2021/10/17 02:23:04;;;;;;;2.75;2.00;;;;;;;13.66;82.84;99976.81;5024583;28;20028;-72
2021/10/17 02:25:31;;;;;;;2.72;1.98;;;;;;;13.70;82.99;99972.81;5025065;28;20049;-72
2021/10/17 02:27:56;;;;;;;3.00;1.92;;;;;;;13.71;82.81;99970.97;5024918;28;20275;-72
2021/10/17 02:30:22;;;;;;;3.17;2.10;;;;;;;13.76;83.07;99979.25;5024820;28;20037;-72
2021/10/17 02:32:47;;;;;;;3.28;2.20;;;;;;;13.74;82.62;99959.97;5024920;28;20041;-72
2021/10/17 02:35:12;;;;;;;5.20;1.95;;;;;;;13.61;83.62;99970.38;5024604;28;20276;-71
2021/10/17 02:37:38;;;;;;;4.57;2.22;;;;;;;13.65;83.69;99977.00;5025171;28;20067;-71
2021/10/17 02:40:05;;;;;;;3.75;1.85;;;;;;;13.61;83.58;99968.53;5024811;28;20365;-72
2021/10/17 02:42:30;;;;;;;4.28;2.05;;;;;;;13.66;83.44;99976.00;5024721;28;20034;-72
2021/10/17 02:44:55;;;;;;;3.38;2.33;;;;;;;13.70;83.43;99977.31;5024608;28;20323;-72
2021/10/17 02:47:21;;;;;;;1.95;1.75;;;;;;;13.55;84.06;99979.88;5024345;28;20068;-72
2021/10/17 02:49:46;;;;;;;3.42;2.03;;;;;;;13.65;83.95;99982.31;5024624;28;20097;-72
2021/10/17 02:52:12;;;;;;;2.78;2.10;;;;;;;13.65;83.48;99988.47;5024653;28;20369;-72
2021/10/17 02:54:37;;;;;;;3.75;2.55;;;;;;;13.65;83.35;99977.00;5023665;28;20251;-72
2021/10/17 02:57:02;;;;;;;3.10;2.10;;;;;;;13.67;83.08;99988.28;5024478;28;20064;-72
2021/10/17 02:59:28;;;;;;;2.78;1.92;;;;;;;13.62;83.34;99991.47;5024217;28;20045;-72
2021/10/17 03:01:53;;;;;;;3.25;2.10;;;;;;;13.53;84.07;99994.38;5024431;28;20060;-72
2021/10/17 03:04:19;;;;;;;3.17;2.20;;;;;;;13.61;83.96;99996.97;5022865;28;20310;-72
2021/10/17 03:06:45;;;;;;;4.47;1.80;;;;;;;13.65;84.05;99999.13;5024298;28;20033;-71
2021/10/17 03:09:10;;;;;;;6.75;2.35;;;;;;;13.74;83.48;99999.91;5024119;28;20037;-71
2021/10/17 03:11:36;;;;;;;3.47;2.22;;;;;;;13.74;83.58;99994.56;5024264;28;20355;-72
2021/10/17 03:14:03;;;;;;;2.50;1.95;;;;;;;13.70;83.63;99998.59;5024063;28;20362;-72
2021/10/17 03:16:29;;;;;;;3.13;2.03;;;;;;;13.66;84.14;99999.94;5024344;28;20041;-72
2021/10/17 03:18:55;;;;;;;5.05;2.58;;;;;;;13.70;83.31;99996.75;5024188;28;20038;-73
2021/10/17 03:21:20;;;;;;;3.00;1.95;;;;;;;13.65;83.43;100007.09;5024027;28;20030;-72
2021/10/17 03:23:45;;;;;;;2.15;1.95;;;;;;;13.65;83.43;100006.28;5023316;28;20399;-72
2021/10/17 03:26:11;;;;;;;2.15;1.63;;;;;;;13.73;83.72;100007.06;5023923;28;20100;-72
2021/10/17 03:28:36;;;;;;;2.35;1.92;;;;;;;13.85;82.65;100003.97;5023788;28;20041;-72
2021/10/17 03:31:05;;;;;;;3.35;2.40;;;;;;;13.73;82.45;100001.72;5023864;28;20033;-72
2021/10/17 03:33:31;;;;;;;5.32;2.88;;;;;;;13.67;82.97;100006.94;5023871;28;20046;-72
2021/10/17 03:35:56;;;;;;;4.93;2.78;;;;;;;13.60;83.97;100009.47;5023648;28;20041;-72
2021/10/17 03:38:22;;;;;;;4.78;2.70;;;;;;;13.67;83.15;100006.94;5023392;28;20038;-71
2021/10/17 03:40:47;;;;;;;5.82;2.33;;;;;;;13.65;83.60;100009.75;5023725;28;20034;-71
2021/10/17 03:43:12;;;;;;;3.45;2.90;;;;;;;13.62;83.71;100011.94;5023387;28;20338;-72
2021/10/17 03:45:39;;;;;;;3.20;2.50;;;;;;;13.58;84.25;100013.28;5022514;28;20096;-72
2021/10/17 03:48:05;;;;;;;3.67;2.30;;;;;;;13.56;84.47;100010.81;5023332;28;20218;-72
2021/10/17 03:50:30;;;;;;;3.47;2.28;;;;;;;13.62;84.14;100018.09;5023446;28;20307;-72
2021/10/17 03:52:56;;;;;;;3.78;1.90;;;;;;;13.69;84.15;100020.88;5022774;28;20060;-72
2021/10/17 03:55:21;;;;;;;3.15;2.00;;;;;;;13.72;83.99;100017.88;5023074;28;20141;-72
2021/10/17 03:57:47;;;;;;;4.20;2.20;;;;;;;13.73;83.20;100016.88;5022791;28;20370;-72
2021/10/17 04:00:12;;;;;;;4.55;2.30;;;;;;;13.64;83.81;100025.91;5023224;28;20061;-72
2021/10/17 04:02:38;;;;;;;4.00;2.80;;;;;;;13.72;83.45;100024.03;5023324;28;20100;-72
2021/10/17 04:05:04;;;;;;;3.67;2.90;;;;;;;13.85;82.81;100027.94;5022939;28;20065;-72
2021/10/17 04:07:29;;;;;;;12.15;8.07;;;;;;;13.83;83.45;100028.13;5023529;28;20247;-71
2021/10/17 04:09:54;;;;;;;5.88;3.75;;;;;;;13.95;82.61;100025.88;5023193;28;20030;-71
2021/10/17 04:12:20;;;;;;;6.45;3.38;;;;;;;13.88;82.99;100028.41;5023612;28;20028;-71
2021/10/17 04:14:45;;;;;;;5.40;3.65;;;;;;;13.76;82.96;100026.34;5022863;28;20364;-72
2021/10/17 04:17:10;;;;;;;9.25;5.72;;;;;;;13.80;83.12;100031.13;5023014;28;20109;-72
2021/10/17 04:19:36;;;;;;;8.52;4.97;;;;;;;13.74;83.54;100030.00;5023109;28;20053;-72
2021/10/17 04:22:01;;;;;;;5.50;3.60;;;;;;;13.63;84.18;100038.38;5022898;28;20029;-72
2021/10/17 04:24:27;;;;;;;5.57;3.40;;;;;;;13.80;83.56;100043.59;5022319;28;20030;-72
2021/10/17 04:26:52;;;;;;;3.97;2.97;;;;;;;13.66;83.61;100045.19;5022884;28;20025;-72
2021/10/17 04:29:18;;;;;;;4.18;2.65;;;;;;;13.56;84.23;100031.28;5022604;28;20041;-72
2021/10/17 04:31:43;;;;;;;4.82;2.50;;;;;;;13.73;83.72;100046.13;5022817;28;20018;-72
2021/10/17 04:34:09;;;;;;;2.92;2.42;;;;;;;13.82;83.71;100054.91;5022491;28;20037;-72
2021/10/17 04:36:35;;;;;;;8.98;3.00;;;;;;;13.64;84.16;100049.84;5022724;28;20218;-72
2021/10/17 04:39:00;;;;;;;11.43;4.18;;;;;;;13.76;84.18;100063.59;5022687;28;20338;-71
2021/10/17 04:41:26;;;;;;;5.05;3.70;;;;;;;13.77;84.00;100067.91;5022730;28;20022;-71
2021/10/17 04:43:51;;;;;;;3.85;2.83;;;;;;;13.79;83.52;100063.25;5022342;28;20038;-71
2021/10/17 04:46:17;;;;;;;3.83;2.35;;;;;;;13.74;83.59;100071.75;5022656;28;20029;-72
2021/10/17 04:48:42;;;;;;;5.15;2.78;;;;;;;13.83;83.57;100065.38;5022448;28;20045;-72
2021/10/17 04:51:08;;;;;;;7.35;2.90;;;;;;;13.90;83.01;100076.16;5022586;28;20080;-72
2021/10/17 04:53:33;;;;;;;8.88;6.18;;;;;;;13.70;83.54;100065.94;5021507;28;20113;-72
2021/10/17 04:55:58;;;;;;;5.07;4.47;;;;;;;13.89;83.55;100085.97;5022473;28;20085;-72
2021/10/17 04:58:26;;;;;;;8.63;7.68;;;;;;;14.02;82.60;100085.41;5022360;28;20276;-72
2021/10/17 05:00:52;;;;;;;8.20;4.97;;;;;;;13.90;82.93;100092.13;5022449;28;20025;-72
2021/10/17 05:03:17;;;;;;;4.72;4.28;;;;;;;13.96;82.45;100084.25;5022183;28;20248;-72
2021/10/17 05:05:43;;;;;;;6.72;4.18;;;;;;;13.92;83.09;100092.78;5022440;28;20089;-72
2021/10/17 05:08:08;;;;;;;5.15;4.15;;;;;;;14.04;82.59;100100.19;5022173;28;20030;-72
2021/10/17 05:10:34;;;;;;;5.57;3.70;;;;;;;13.96;83.36;100096.75;5025279;28;20041;-71
2021/10/17 05:13:00;;;;;;;5.40;3.50;;;;;;;13.84;83.92;100100.81;5026167;28;20030;-71
2021/10/17 05:15:25;;;;;;;3.65;3.15;;;;;;;13.90;83.50;100103.59;5026673;28;20025;-72
2021/10/17 05:17:51;;;;;;;4.88;3.70;;;;;;;14.16;82.56;100105.13;5026411;28;20041;-72
2021/10/17 05:20:17;;;;;;;5.85;3.20;;;;;;;14.09;82.95;100101.50;5026018;28;20083;-72
2021/10/17 05:22:42;;;;;;;5.60;3.88;;;;;;;14.04;83.10;100105.50;5026066;28;20033;-72
2021/10/17 05:25:08;;;;;;;6.30;3.53;;;;;;;14.29;81.84;100113.34;5025931;28;20030;-72
2021/10/17 05:27:33;;;;;;;5.68;3.30;;;;;;;14.15;82.88;100111.44;5026173;28;20026;-72
2021/10/17 05:29:59;;;;;;;8.35;4.88;;;;;;;14.29;81.54;100116.00;5026080;28;20097;-72
2021/10/17 05:32:24;;;;;;;6.97;5.72;;;;;;;14.02;82.31;100118.19;5026131;28;20045;-73
2021/10/17 05:34:50;;;;;;;5.30;4.30;;;;;;;13.92;83.21;100124.72;5025631;28;20057;-72
2021/10/17 05:37:15;;;;;;;10.70;5.25;;;;;;;13.87;82.93;100127.91;5026010;28;20249;-72
2021/10/17 05:39:40;;;;;;;9.63;3.40;;;;;;;13.81;83.27;100125.13;5024701;28;20032;-72
2021/10/17 05:42:06;;;;;;;5.40;3.53;;;;;;;13.80;83.59;100124.28;5025922;28;20214;-71
2021/10/17 05:44:31;;;;;;;5.32;4.40;;;;;;;13.87;83.15;100117.25;5024348;28;20110;-71
2021/10/17 05:46:56;;;;;;;5.28;4.78;;;;;;;13.86;83.55;100131.56;5026009;28;20310;-72
2021/10/17 05:49:22;;;;;;;6.20;4.22;;;;;;;13.83;84.11;100133.75;5025842;28;20045;-72
2021/10/17 05:51:47;;;;;;;6.25;3.55;;;;;;;13.92;83.97;100128.22;5025733;28;20044;-72
2021/10/17 05:54:13;;;;;;;6.47;3.67;;;;;;;13.93;83.66;100142.34;5024744;28;20100;-72
2021/10/17 05:56:38;;;;;;;6.90;3.20;;;;;;;13.88;84.20;100140.22;5025877;28;20030;-72
2021/10/17 05:59:08;;;;;;;5.28;3.20;;;;;;;13.96;83.76;100144.66;5025281;28;20042;-72
2021/10/17 06:01:34;;;;;;;7.90;4.43;;;;;;;13.87;84.01;100151.88;5025627;28;20072;-72
2021/10/17 06:03:59;;;;;;;10.95;7.95;;;;;;;13.97;84.06;100152.47;5025235;28;20262;-72
2021/10/17 06:06:26;;;;;;;16.90;11.02;;;;;;;13.94;84.60;100160.81;5024302;28;20333;-72
2021/10/17 06:08:54;;;;;;;21.50;13.93;;;;;;;14.01;83.75;100164.44;5025217;28;20310;-72
2021/10/17 06:11:19;;;;;;;25.27;13.65;;;;;;;13.95;84.18;100162.47;5025399;28;20025;-72
2021/10/17 06:13:45;;;;;;;13.65;7.60;;;;;;;13.89;84.57;100168.50;5024920;28;20097;-71
2021/10/17 06:16:10;;;;;;;14.68;8.30;;;;;;;13.90;84.48;100169.31;5025437;28;20037;-71
2021/10/17 06:18:35;;;;;;;12.10;7.38;;;;;;;13.71;85.16;100167.91;5025380;28;20346;-72
2021/10/17 06:21:02;;;;;;;15.98;6.35;;;;;;;13.85;84.24;100175.16;5024346;28;20275;-73
2021/10/17 06:23:28;;;;;;;13.65;7.15;;;;;;;13.96;83.58;100169.47;5024379;28;20092;-72
2021/10/17 06:25:54;;;;;;;8.30;5.15;;;;;;;13.74;83.88;100178.22;5025113;28;20034;-72
2021/10/17 06:28:19;;;;;;;23.23;9.60;;;;;;;13.71;84.32;100178.53;5024815;28;20222;-72
2021/10/17 06:30:44;;;;;;;9.38;5.75;;;;;;;13.82;84.36;100175.50;5025018;28;20030;-72
2021/10/17 06:33:10;;;;;;;10.55;6.22;;;;;;;13.85;84.20;100180.50;5024643;28;20040;-72
2021/10/17 06:35:35;;;;;;;13.80;7.50;;;;;;;13.88;84.09;100181.97;5024959;28;20025;-72
2021/10/17 06:38:01;;;;;;;17.33;9.02;;;;;;;13.78;84.10;100179.53;5024570;28;20034;-72
2021/10/17 06:40:26;;;;;;;18.95;10.00;;;;;;;13.73;84.03;100184.53;5024817;28;20093;-72
2021/10/17 06:42:52;;;;;;;18.23;11.32;;;;;;;13.68;84.93;100192.19;5024663;28;20025;-72
2021/10/17 06:45:17;;;;;;;17.27;8.18;;;;;;;13.74;84.18;100192.34;5024661;28;20064;-72
2021/10/17 06:47:43;;;;;;;11.98;7.50;;;;;;;13.83;83.87;100190.47;5024655;28;20049;-71
2021/10/17 06:50:09;;;;;;;11.18;6.55;;;;;;;13.85;83.72;100196.47;5024312;28;20052;-71
2021/10/17 06:52:34;;;;;;;12.32;7.00;;;;;;;13.87;83.65;100190.97;5024430;28;20029;-72
2021/10/17 06:54:59;;;;;;;16.10;8.43;;;;;;;13.97;83.41;100202.25;5022526;28;20082;-72
2021/10/17 06:57:25;;;;;;;14.10;8.73;;;;;;;13.84;84.18;100200.13;5024545;28;20064;-72
2021/10/17 06:59:50;;;;;;;14.32;7.85;;;;;;;14.06;83.25;100204.69;5024164;28;20255;-72
2021/10/17 07:02:16;;;;;;;17.85;10.32;;;;;;;14.06;83.47;100202.03;5024435;28;20112;-71
2021/10/17 07:04:41;;;;;;;17.02;9.30;;;;;;;13.95;82.96;100183.78;5024009;28;20038;-71
2021/10/17 07:07:06;;;;;;;15.80;8.13;;;;;;;14.02;83.26;100215.88;5024295;28;20101;-72
2021/10/17 07:09:32;;;;;;;12.35;7.43;;;;;;;14.00;82.91;100213.38;5024237;28;20114;-72
2021/10/17 07:11:57;;;;;;;9.90;5.93;;;;;;;14.15;82.42;100213.47;5024236;28;20376;-72
2021/10/17 07:14:23;;;;;;;6.10;4.15;;;;;;;14.10;82.33;100212.34;5023876;28;20038;-72
2021/10/17 07:16:48;;;;;;;5.53;4.28;;;;;;;14.15;82.91;100217.97;5024116;28;20312;-72
2021/10/17 07:19:14;;;;;;;6.00;4.00;;;;;;;14.16;82.60;100208.97;5024040;28;20093;-72
2021/10/17 07:21:39;;;;;;;8.27;4.03;;;;;;;14.20;82.29;100216.44;5024019;28;20354;-72
2021/10/17 07:24:04;;;;;;;8.60;4.20;;;;;;;14.20;82.52;100221.78;5023296;28;20034;-72
2021/10/17 07:26:30;;;;;;;8.00;4.22;;;;;;;14.31;82.50;100217.88;5023952;28;20085;-72
2021/10/17 07:28:55;;;;;;;7.72;5.22;;;;;;;14.24;82.44;100215.09;5023605;28;20037;-72
2021/10/17 07:31:21;;;;;;;13.98;8.82;;;;;;;14.32;82.47;100220.38;5023929;28;20099;-72
2021/10/17 07:33:46;;;;;;;23.00;11.82;;;;;;;14.23;83.24;100220.59;5022372;28;20037;-72
2021/10/17 07:36:11;;;;;;;15.70;9.52;;;;;;;14.42;82.43;100217.53;5023806;28;20063;-72
2021/10/17 07:38:37;;;;;;;12.57;8.15;;;;;;;14.49;81.90;100226.47;5023558;28;20049;-71
2021/10/17 07:41:02;;;;;;;11.35;7.35;;;;;;;14.49;82.48;100225.66;5023616;28;20097;-71
2021/10/17 07:43:28;;;;;;;12.32;7.07;;;;;;;14.62;82.50;100228.59;5023308;28;20034;-72
2021/10/17 07:45:53;;;;;;;9.77;6.47;;;;;;;14.57;82.03;100229.13;5023621;28;20026;-72
2021/10/17 07:48:18;;;;;;;12.27;6.60;;;;;;;14.60;81.72;100231.44;5022137;28;20030;-72
2021/10/17 07:50:44;;;;;;;9.40;6.10;;;;;;;14.66;82.29;100228.06;5023538;28;20013;-71
2021/10/17 07:53:09;;;;;;;12.77;5.95;;;;;;;14.71;81.25;100235.53;5022464;28;20216;-72
2021/10/17 07:55:35;;;;;;;13.98;6.35;;;;;;;14.70;81.20;100220.56;5022444;28;20025;-72
2021/10/17 07:58:00;;;;;;;11.93;6.18;;;;;;;14.87;81.06;100231.94;5023140;28;20034;-72
2021/10/17 08:00:27;;;;;;;7.22;4.63;;;;;;;14.96;80.70;100225.53;5023869;28;20030;-72
2021/10/17 08:02:53;;;;;;;6.82;4.90;;;;;;;14.99;80.34;100233.16;5023295;28;20133;-72
2021/10/17 08:05:19;;;;;;;7.93;5.35;;;;;;;15.21;79.70;100229.66;5023003;28;20034;-73
2021/10/17 08:07:45;;;;;;;8.23;6.35;;;;;;;15.30;79.08;100231.22;5023191;28;20116;-72
2021/10/17 08:10:12;;;;;;;7.15;5.40;;;;;;;15.56;78.85;100243.34;5023287;28;20339;-72
2021/10/17 08:12:38;;;;;;;7.80;6.30;;;;;;;15.61;77.97;100235.66;5023131;28;20026;-72
2021/10/17 08:15:05;;;;;;;9.20;5.75;;;;;;;15.59;77.30;100233.16;5022939;28;20056;-72
2021/10/17 08:17:30;;;;;;;8.82;6.07;;;;;;;15.62;78.43;100234.66;5023100;28;20334;-72
2021/10/17 08:19:56;;;;;;;7.15;5.25;;;;;;;15.81;77.59;100234.13;5022704;28;20072;-72
2021/10/17 08:22:23;;;;;;;9.30;4.68;;;;;;;15.73;76.51;100230.69;5022787;28;20056;-72
2021/10/17 08:24:48;;;;;;;8.18;4.90;;;;;;;15.88;76.95;100234.22;5022780;28;20033;-72
2021/10/17 08:27:14;;;;;;;7.95;4.82;;;;;;;16.00;76.62;100227.38;5022891;28;20025;-71
2021/10/17 08:29:39;;;;;;;12.77;4.65;;;;;;;15.99;75.90;100228.41;5022519;28;20037;-71
2021/10/17 08:32:06;;;;;;;8.82;5.68;;;;;;;16.10;74.55;100235.13;5022839;28;20060;-72
2021/10/17 08:34:32;;;;;;;15.38;8.55;;;;;;;16.20;75.21;100239.16;5022485;28;20049;-72
2021/10/17 08:36:58;;;;;;;15.20;9.23;;;;;;;16.26;74.82;100230.41;5022721;28;20274;-72
2021/10/17 08:39:23;;;;;;;10.05;6.45;;;;;;;16.37;73.81;100245.13;5022708;28;20311;-72
2021/10/17 08:41:49;;;;;;;9.10;4.95;;;;;;;16.35;73.86;100233.78;5022692;28;20038;-72
2021/10/17 08:44:15;;;;;;;9.57;4.68;;;;;;;16.38;73.79;100233.41;5022168;28;20064;-72
2021/10/17 08:46:43;;;;;;;6.90;4.10;;;;;;;16.49;73.61;100238.28;5022623;28;20072;-72
2021/10/17 08:49:09;;;;;;;11.40;4.25;;;;;;;16.47;74.21;100228.78;5022569;28;20037;-73
2021/10/17 08:51:35;;;;;;;4.95;3.67;;;;;;;16.45;73.29;100226.28;5022556;28;20034;-72
2021/10/17 08:54:01;;;;;;;5.53;3.53;;;;;;;16.44;73.47;100235.34;5021697;28;20092;-72
2021/10/17 08:56:26;;;;;;;6.47;3.85;;;;;;;16.44;73.11;100229.16;5022554;28;20072;-72
2021/10/17 08:58:52;;;;;;;16.83;4.30;;;;;;;16.48;73.14;100225.91;5022618;28;20064;-73
2021/10/17 09:01:18;;;;;;;8.02;3.95;;;;;;;16.66;72.06;100236.25;5022815;28;20141;-73
2021/10/17 09:03:55;;;;;;;13.38;4.22;;;;;;;16.59;71.14;100235.28;5022380;28;20100;-73
2021/10/17 09:06:27;;;;;;;10.40;5.90;;;;;;;16.50;71.67;100231.91;5022348;28;20045;-72
2021/10/17 09:09:05;;;;;;;78.40;9.65;;;;;;;16.63;72.19;100233.06;5022235;28;20042;-71
2021/10/17 09:11:42;;;;;;;42.45;7.75;;;;;;;16.85;72.75;100243.66;5022346;28;20042;-72
2021/10/17 09:14:22;;;;;;;46.97;8.30;;;;;;;16.96;71.97;100234.28;5022260;28;20046;-72
2021/10/17 09:16:50;;;;;;;10.63;4.80;;;;;;;16.82;69.94;100217.28;5022176;28;20045;-72
2021/10/17 09:19:21;;;;;;;22.35;6.45;;;;;;;16.91;69.62;100231.38;5022354;28;20038;-72
2021/10/17 09:22:06;;;;;;;56.17;10.00;;;;;;;17.06;70.45;100231.28;5022354;28;20034;-73
2021/10/17 09:24:35;;;;;;;16.58;6.00;;;;;;;16.95;69.80;100229.97;5022080;28;20142;-73
2021/10/17 09:27:06;;;;;;;10.70;4.93;;;;;;;16.82;69.57;100232.50;5022194;28;20374;-73
2021/10/17 09:29:33;;;;;;;41.58;7.28;;;;;;;17.01;70.41;100231.03;5022034;28;20158;-72
2021/10/17 09:31:58;;;;;;;90.13;12.43;;;;;;;17.17;69.84;100228.94;5022376;28;20254;-72
2021/10/17 09:34:30;;;;;;;6.32;3.75;;;;;;;17.16;69.26;100229.94;5021925;28;20037;-73
2021/10/17 09:37:13;;;;;;;9.43;4.70;;;;;;;17.29;69.14;100217.69;5022103;28;20053;-72
2021/10/17 09:39:46;;;;;;;13.73;4.32;;;;;;;17.51;68.07;100221.97;5022304;28;20106;-73
2021/10/17 09:42:20;;;;;;;39.88;6.18;;;;;;;17.43;68.65;100211.41;5022125;28;20037;-72
2021/10/17 09:44:46;;;;;;;13.57;3.83;;;;;;;17.74;65.90;100225.28;5022103;28;20038;-73
2021/10/17 09:47:12;;;;;;;6.63;5.22;;;;;;;17.58;68.97;100222.84;5022081;28;20076;-72
2021/10/17 09:49:38;;;;;;;5.57;3.22;;;;;;;17.64;65.36;100215.88;5021750;28;20038;-73
2021/10/17 09:52:23;;;;;;;15.80;5.07;;;;;;;17.85;65.89;100221.22;5021918;28;20030;-73
2021/10/17 09:55:07;;;;;;;4.32;3.17;;;;;;;17.61;66.58;100219.78;5020104;28;20034;-72
2021/10/17 09:57:34;;;;;;;;;;;;;;;17.81;63.22;100226.16;5024909;28;20038;-72
2021/10/17 10:00:01;;;;;;;7.03;3.38;;;;;;;17.68;64.14;100223.34;5025312;28;19985;-73
2021/10/17 10:02:26;;;;;;;5.60;4.32;;;;;;;17.44;66.10;100219.25;5040885;28;20105;-72
2021/10/17 10:04:52;;;;;;;5.88;3.53;;;;;;;17.52;66.76;100226.31;5040693;28;20334;-72
2021/10/17 10:07:23;;;;;;;6.38;4.68;;;;;;;17.45;66.00;100222.75;5025454;28;20040;-72
2021/10/17 10:09:49;;;;;;;4.20;3.38;;;;;;;17.17;66.78;100220.91;5025562;28;20073;-73
2021/10/17 10:12:18;;;;;;;7.72;4.85;;;;;;;17.21;67.15;100218.66;5025351;28;20129;-73
2021/10/17 10:14:46;;;;;;;13.52;8.88;;;;;;;17.15;68.41;100206.06;5023774;28;20033;-72
2021/10/17 10:17:13;;;;;;;11.43;5.47;;;;;;;17.31;66.60;100196.91;5025280;28;20033;-73
2021/10/17 10:19:40;;;;;;;12.90;5.43;;;;;;;17.46;66.30;100205.66;5025267;28;20026;-73
2021/10/17 10:22:05;;;;;;;4.13;3.05;;;;;;;17.56;65.49;100204.31;5025367;28;20021;-72
2021/10/17 10:24:34;;;;;;;3.53;2.65;;;;;;;17.44;65.96;100199.69;5024562;28;20037;-72
2021/10/17 10:27:00;;;;;;;15.98;5.50;;;;;;;17.45;65.09;100190.63;5025182;28;20033;-72
2021/10/17 10:29:29;;;;;;;3.67;2.45;;;;;;;17.47;64.37;100194.78;5025173;28;20034;-73
2021/10/17 10:31:56;;;;;;;4.05;3.28;;;;;;;17.72;63.83;100192.50;5024923;28;20034;-73
2021/10/17 10:34:22;;;;;;;5.15;3.20;;;;;;;17.94;65.07;100189.75;5025254;28;20423;-73
2021/10/17 10:36:49;;;;;;;4.13;2.97;;;;;;;17.97;64.14;100189.34;5023858;28;20105;-72
2021/10/17 10:39:16;;;;;;;6.35;2.83;;;;;;;17.69;64.85;100184.88;5024693;28;20030;-72
2021/10/17 10:41:56;;;;;;;8.90;2.85;;;;;;;17.54;66.74;100184.94;5024912;28;20251;-71
2021/10/17 10:44:22;;;;;;;5.10;2.50;;;;;;;17.32;66.76;100186.00;5024733;28;20046;-71
2021/10/17 10:46:50;;;;;;;3.35;2.60;;;;;;;17.27;64.54;100179.59;5024778;28;20173;-72
2021/10/17 10:49:39;;;;;;;4.10;2.70;;;;;;;17.23;68.32;100174.63;5024552;28;20038;-72
2021/10/17 10:52:07;;;;;;;3.78;2.72;;;;;;;17.25;67.35;100177.09;5024484;28;20124;-72
2021/10/17 10:54:33;;;;;;;5.05;2.20;;;;;;;17.15;67.60;100168.59;5023810;28;20288;-71
2021/10/17 10:56:58;;;;;;;4.47;2.17;;;;;;;17.46;62.72;100163.66;5024472;28;20129;-71
2021/10/17 10:59:29;;;;;;;3.58;1.98;;;;;;;17.41;62.93;100171.47;5024236;28;20044;-71
2021/10/17 11:02:07;;;;;;;2.20;2.00;;;;;;;17.42;62.93;100164.25;5024415;28;20331;-72
2021/10/17 11:04:42;;;;;;;5.03;1.80;;;;;;;17.64;61.79;100170.34;5024519;28;20034;-72
2021/10/17 11:07:29;;;;;;;2.63;2.00;;;;;;;17.68;63.92;100166.28;5022960;28;20045;-72
2021/10/17 11:09:57;;;;;;;5.93;2.20;;;;;;;17.55;62.62;100167.84;5023086;28;20034;-71
2021/10/17 11:12:40;;;;;;;3.65;2.15;;;;;;;17.71;60.37;100161.41;5024376;28;20038;-72
2021/10/17 11:15:11;;;;;;;3.97;1.70;;;;;;;17.64;61.01;100162.31;5024103;28;20029;-72
2021/10/17 11:17:37;;;;;;;2.85;2.22;;;;;;;17.60;61.98;100153.03;5024231;28;20116;-72
2021/10/17 11:20:05;;;;;;;3.47;2.05;;;;;;;17.73;61.69;100161.19;5022607;28;20323;-72
2021/10/17 11:22:37;;;;;;;2.78;1.85;;;;;;;17.69;60.14;100167.97;5022578;28;20025;-71
2021/10/17 11:25:03;;;;;;;1.77;1.40;;;;;;;17.19;60.99;100159.97;5023869;28;20072;-71